sensor_id;sensor_type;location;lat;lon;timestamp;temperature;humidity
46608;DHT22;32330;51.936;7.184;2024-03-08T00:00:34;3.30;1.00
46608;DHT22;32330;51.936;7.184;2024-03-08T00:03:01;3.30;1.00
46608;DHT22;32330;51.936;7.184;2024-03-08T00:05:29;3.30;1.00
46608;DHT22;32330;51.936;7.184;2024-03-08T00:07:57;3.20;1.00
46608;DHT22;32330;51.936;7.184;2024-03-08T00:10:25;3.20;1.00
46608;DHT22;32330;51.936;7.184;2024-03-08T00:12:54;3.20;1.00
46608;DHT22;32330;51.936;7.184;2024-03-08T00:15:21;3.20;1.00
46608;DHT22;32330;51.936;7.184;2024-03-08T00:17:48;3.20;1.00
46608;DHT22;32330;51.936;7.184;2024-03-08T00:20:16;3.20;1.00
46608;DHT22;32330;51.936;7.184;2024-03-08T00:22:44;3.20;1.00
46608;DHT22;32330;51.936;7.184;2024-03-08T00:25:13;3.10;1.00
46608;DHT22;32330;51.936;7.184;2024-03-08T00:27:40;3.10;1.00
46608;DHT22;32330;51.936;7.184;2024-03-08T00:30:08;3.10;1.00
46608;DHT22;32330;51.936;7.184;2024-03-08T00:32:36;3.10;1.00
46608;DHT22;32330;51.936;7.184;2024-03-08T00:35:04;3.00;1.00
46608;DHT22;32330;51.936;7.184;2024-03-08T00:37:33;3.00;1.00
46608;DHT22;32330;51.936;7.184;2024-03-08T00:40:00;3.00;1.00
46608;DHT22;32330;51.936;7.184;2024-03-08T00:42:29;3.00;1.00
46608;DHT22;32330;51.936;7.184;2024-03-08T00:44:56;3.00;1.00
46608;DHT22;32330;51.936;7.184;2024-03-08T00:47:23;3.00;1.00
46608;DHT22;32330;51.936;7.184;2024-03-08T00:49:50;2.90;1.00
46608;DHT22;32330;51.936;7.184;2024-03-08T00:52:18;2.90;1.00
46608;DHT22;32330;51.936;7.184;2024-03-08T00:54:46;2.90;1.00
46608;DHT22;32330;51.936;7.184;2024-03-08T00:57:13;2.90;1.00
46608;DHT22;32330;51.936;7.184;2024-03-08T00:59:42;2.90;1.00
46608;DHT22;32330;51.936;7.184;2024-03-08T01:02:10;2.90;1.00
46608;DHT22;32330;51.936;7.184;2024-03-08T01:04:37;2.90;1.00
46608;DHT22;32330;51.936;7.184;2024-03-08T01:07:04;2.90;1.00
46608;DHT22;32330;51.936;7.184;2024-03-08T01:09:31;2.80;1.00
46608;DHT22;32330;51.936;7.184;2024-03-08T01:11:58;2.80;1.00
46608;DHT22;32330;51.936;7.184;2024-03-08T01:14:25;2.80;1.00
46608;DHT22;32330;51.936;7.184;2024-03-08T01:16:53;2.70;1.00
46608;DHT22;32330;51.936;7.184;2024-03-08T01:19:21;2.70;1.00
46608;DHT22;32330;51.936;7.184;2024-03-08T01:21:48;2.70;1.00
46608;DHT22;32330;51.936;7.184;2024-03-08T01:24:15;2.70;1.00
46608;DHT22;32330;51.936;7.184;2024-03-08T01:26:42;2.70;1.00
46608;DHT22;32330;51.936;7.184;2024-03-08T01:29:10;2.70;1.00
46608;DHT22;32330;51.936;7.184;2024-03-08T01:31:37;2.70;1.00
46608;DHT22;32330;51.936;7.184;2024-03-08T01:34:06;2.70;1.00
46608;DHT22;32330;51.936;7.184;2024-03-08T01:36:33;2.70;1.00
46608;DHT22;32330;51.936;7.184;2024-03-08T01:39:00;2.60;1.00
46608;DHT22;32330;51.936;7.184;2024-03-08T01:41:27;2.60;1.00
46608;DHT22;32330;51.936;7.184;2024-03-08T01:43:55;2.60;1.00
46608;DHT22;32330;51.936;7.184;2024-03-08T01:46:22;2.60;1.00
46608;DHT22;32330;51.936;7.184;2024-03-08T01:48:50;2.60;1.00
46608;DHT22;32330;51.936;7.184;2024-03-08T01:51:20;2.60;1.00
46608;DHT22;32330;51.936;7.184;2024-03-08T01:53:48;2.60;1.00
46608;DHT22;32330;51.936;7.184;2024-03-08T01:56:16;2.60;1.00
46608;DHT22;32330;51.936;7.184;2024-03-08T01:58:44;2.50;1.00
46608;DHT22;32330;51.936;7.184;2024-03-08T02:01:12;2.50;1.00
46608;DHT22;32330;51.936;7.184;2024-03-08T02:03:40;2.50;1.00
46608;DHT22;32330;51.936;7.184;2024-03-08T02:06:11;2.50;1.00
46608;DHT22;32330;51.936;7.184;2024-03-08T02:08:42;2.50;1.00
46608;DHT22;32330;51.936;7.184;2024-03-08T02:11:10;2.40;1.00
46608;DHT22;32330;51.936;7.184;2024-03-08T02:13:37;2.50;1.00
46608;DHT22;32330;51.936;7.184;2024-03-08T02:16:04;2.40;1.00
46608;DHT22;32330;51.936;7.184;2024-03-08T02:18:33;2.40;1.00
46608;DHT22;32330;51.936;7.184;2024-03-08T02:21:04;2.40;1.00
46608;DHT22;32330;51.936;7.184;2024-03-08T02:23:32;2.40;1.00
46608;DHT22;32330;51.936;7.184;2024-03-08T02:25:59;2.40;1.00
46608;DHT22;32330;51.936;7.184;2024-03-08T02:28:26;2.40;1.00
46608;DHT22;32330;51.936;7.184;2024-03-08T02:30:54;2.40;1.00
46608;DHT22;32330;51.936;7.184;2024-03-08T02:33:23;2.30;1.00
46608;DHT22;32330;51.936;7.184;2024-03-08T02:35:50;2.30;1.00
46608;DHT22;32330;51.936;7.184;2024-03-08T02:38:20;2.30;1.00
46608;DHT22;32330;51.936;7.184;2024-03-08T02:40:49;2.40;1.60
46608;DHT22;32330;51.936;7.184;2024-03-08T02:43:17;2.30;2.20
46608;DHT22;32330;51.936;7.184;2024-03-08T02:45:45;2.30;2.30
46608;DHT22;32330;51.936;7.184;2024-03-08T02:48:13;2.30;2.60
46608;DHT22;32330;51.936;7.184;2024-03-08T02:50:40;2.30;2.70
46608;DHT22;32330;51.936;7.184;2024-03-08T02:53:08;2.20;4.40
46608;DHT22;32330;51.936;7.184;2024-03-08T02:55:38;2.20;4.80
46608;DHT22;32330;51.936;7.184;2024-03-08T02:58:07;2.30;1.00
46608;DHT22;32330;51.936;7.184;2024-03-08T03:00:36;2.20;2.10
46608;DHT22;32330;51.936;7.184;2024-03-08T03:03:04;2.20;2.00
46608;DHT22;32330;51.936;7.184;2024-03-08T03:05:32;2.20;3.50
46608;DHT22;32330;51.936;7.184;2024-03-08T03:07:59;2.20;4.50
46608;DHT22;32330;51.936;7.184;2024-03-08T03:10:26;2.20;4.40
46608;DHT22;32330;51.936;7.184;2024-03-08T03:12:55;2.20;4.80
46608;DHT22;32330;51.936;7.184;2024-03-08T03:15:22;2.20;2.00
46608;DHT22;32330;51.936;7.184;2024-03-08T03:17:50;2.20;3.50
46608;DHT22;32330;51.936;7.184;2024-03-08T03:20:17;2.20;1.10
46608;DHT22;32330;51.936;7.184;2024-03-08T03:22:49;2.20;1.00
46608;DHT22;32330;51.936;7.184;2024-03-08T03:25:18;2.20;2.40
46608;DHT22;32330;51.936;7.184;2024-03-08T03:27:51;2.20;1.00
46608;DHT22;32330;51.936;7.184;2024-03-08T03:30:20;2.10;1.10
46608;DHT22;32330;51.936;7.184;2024-03-08T03:32:48;2.10;1.00
46608;DHT22;32330;51.936;7.184;2024-03-08T03:35:16;2.10;1.00
46608;DHT22;32330;51.936;7.184;2024-03-08T03:37:44;2.20;1.20
46608;DHT22;32330;51.936;7.184;2024-03-08T03:40:27;2.10;1.00
46608;DHT22;32330;51.936;7.184;2024-03-08T03:42:54;2.10;1.00
46608;DHT22;32330;51.936;7.184;2024-03-08T03:45:23;2.20;1.20
46608;DHT22;32330;51.936;7.184;2024-03-08T03:47:50;2.10;1.00
46608;DHT22;32330;51.936;7.184;2024-03-08T03:50:18;2.10;1.40
46608;DHT22;32330;51.936;7.184;2024-03-08T03:52:45;2.10;3.30
46608;DHT22;32330;51.936;7.184;2024-03-08T03:55:13;2.10;3.30
46608;DHT22;32330;51.936;7.184;2024-03-08T03:57:40;2.00;3.20
46608;DHT22;32330;51.936;7.184;2024-03-08T04:00:08;2.00;4.10
46608;DHT22;32330;51.936;7.184;2024-03-08T04:02:41;2.00;4.60
46608;DHT22;32330;51.936;7.184;2024-03-08T04:05:09;2.00;6.30
46608;DHT22;32330;51.936;7.184;2024-03-08T04:07:37;2.00;5.70
46608;DHT22;32330;51.936;7.184;2024-03-08T04:10:06;2.00;5.20
46608;DHT22;32330;51.936;7.184;2024-03-08T04:12:34;2.00;7.10
46608;DHT22;32330;51.936;7.184;2024-03-08T04:15:01;2.00;6.20
46608;DHT22;32330;51.936;7.184;2024-03-08T04:17:30;2.00;6.00
46608;DHT22;32330;51.936;7.184;2024-03-08T04:19:59;1.90;6.70
46608;DHT22;32330;51.936;7.184;2024-03-08T04:22:26;1.90;9.60
46608;DHT22;32330;51.936;7.184;2024-03-08T04:24:54;1.90;9.70
46608;DHT22;32330;51.936;7.184;2024-03-08T04:27:21;1.90;8.60
46608;DHT22;32330;51.936;7.184;2024-03-08T04:29:48;1.90;9.00
46608;DHT22;32330;51.936;7.184;2024-03-08T04:32:15;1.90;7.90
46608;DHT22;32330;51.936;7.184;2024-03-08T04:34:43;1.90;9.10
46608;DHT22;32330;51.936;7.184;2024-03-08T04:37:11;1.90;10.00
46608;DHT22;32330;51.936;7.184;2024-03-08T04:39:39;1.90;10.30
46608;DHT22;32330;51.936;7.184;2024-03-08T04:42:07;1.90;11.30
46608;DHT22;32330;51.936;7.184;2024-03-08T04:44:37;1.90;10.90
46608;DHT22;32330;51.936;7.184;2024-03-08T04:47:04;1.80;10.50
46608;DHT22;32330;51.936;7.184;2024-03-08T04:49:32;1.80;10.00
46608;DHT22;32330;51.936;7.184;2024-03-08T04:52:01;1.80;8.50
46608;DHT22;32330;51.936;7.184;2024-03-08T04:54:31;1.80;8.90
46608;DHT22;32330;51.936;7.184;2024-03-08T04:56:58;1.80;11.30
46608;DHT22;32330;51.936;7.184;2024-03-08T04:59:26;1.80;10.00
46608;DHT22;32330;51.936;7.184;2024-03-08T05:01:54;1.80;8.30
46608;DHT22;32330;51.936;7.184;2024-03-08T05:04:21;1.80;8.20
46608;DHT22;32330;51.936;7.184;2024-03-08T05:06:49;1.80;8.30
46608;DHT22;32330;51.936;7.184;2024-03-08T05:09:16;1.80;9.40
46608;DHT22;32330;51.936;7.184;2024-03-08T05:11:46;1.80;9.40
46608;DHT22;32330;51.936;7.184;2024-03-08T05:14:14;1.80;10.80
46608;DHT22;32330;51.936;7.184;2024-03-08T05:16:42;1.70;11.70
46608;DHT22;32330;51.936;7.184;2024-03-08T05:19:09;1.70;11.70
46608;DHT22;32330;51.936;7.184;2024-03-08T05:21:36;1.70;11.00
46608;DHT22;32330;51.936;7.184;2024-03-08T05:24:05;1.70;11.80
46608;DHT22;32330;51.936;7.184;2024-03-08T05:26:32;1.70;11.20
46608;DHT22;32330;51.936;7.184;2024-03-08T05:29:00;1.70;11.10
46608;DHT22;32330;51.936;7.184;2024-03-08T05:31:30;1.70;12.70
46608;DHT22;32330;51.936;7.184;2024-03-08T05:33:57;1.70;11.50
46608;DHT22;32330;51.936;7.184;2024-03-08T05:36:24;1.70;12.10
46608;DHT22;32330;51.936;7.184;2024-03-08T05:38:52;1.70;11.90
46608;DHT22;32330;51.936;7.184;2024-03-08T05:41:20;1.60;13.90
46608;DHT22;32330;51.936;7.184;2024-03-08T05:43:51;1.60;16.90
46608;DHT22;32330;51.936;7.184;2024-03-08T05:46:19;1.60;17.50
46608;DHT22;32330;51.936;7.184;2024-03-08T05:48:47;1.60;17.60
46608;DHT22;32330;51.936;7.184;2024-03-08T05:51:17;1.60;16.70
46608;DHT22;32330;51.936;7.184;2024-03-08T05:53:47;1.60;16.30
46608;DHT22;32330;51.936;7.184;2024-03-08T05:56:14;1.60;17.70
46608;DHT22;32330;51.936;7.184;2024-03-08T05:58:41;1.60;17.30
46608;DHT22;32330;51.936;7.184;2024-03-08T06:01:08;1.60;17.70
46608;DHT22;32330;51.936;7.184;2024-03-08T06:03:39;1.60;17.90
46608;DHT22;32330;51.936;7.184;2024-03-08T06:06:11;1.60;20.90
46608;DHT22;32330;51.936;7.184;2024-03-08T06:08:38;1.50;19.90
46608;DHT22;32330;51.936;7.184;2024-03-08T06:11:06;1.50;20.90
46608;DHT22;32330;51.936;7.184;2024-03-08T06:13:33;1.60;20.20
46608;DHT22;32330;51.936;7.184;2024-03-08T06:16:00;1.60;20.10
46608;DHT22;32330;51.936;7.184;2024-03-08T06:18:30;1.60;22.00
46608;DHT22;32330;51.936;7.184;2024-03-08T06:20:58;1.50;22.60
46608;DHT22;32330;51.936;7.184;2024-03-08T06:23:26;1.60;21.60
46608;DHT22;32330;51.936;7.184;2024-03-08T06:25:53;1.60;21.20
46608;DHT22;32330;51.936;7.184;2024-03-08T06:28:20;1.60;23.80
46608;DHT22;32330;51.936;7.184;2024-03-08T06:30:47;1.60;24.60
46608;DHT22;32330;51.936;7.184;2024-03-08T06:33:17;1.60;22.30
46608;DHT22;32330;51.936;7.184;2024-03-08T06:35:49;1.60;21.30
46608;DHT22;32330;51.936;7.184;2024-03-08T06:38:42;1.60;22.70
46608;DHT22;32330;51.936;7.184;2024-03-08T06:41:16;1.60;21.50
46608;DHT22;32330;51.936;7.184;2024-03-08T06:43:52;1.70;20.30
46608;DHT22;32330;51.936;7.184;2024-03-08T06:46:23;1.70;18.20
46608;DHT22;32330;51.936;7.184;2024-03-08T06:48:51;1.70;18.80
46608;DHT22;32330;51.936;7.184;2024-03-08T06:51:18;1.70;18.40
46608;DHT22;32330;51.936;7.184;2024-03-08T06:53:47;1.70;16.90
46608;DHT22;32330;51.936;7.184;2024-03-08T06:56:15;1.80;17.50
46608;DHT22;32330;51.936;7.184;2024-03-08T06:58:42;1.80;11.90
46608;DHT22;32330;51.936;7.184;2024-03-08T07:01:11;1.80;9.60
46608;DHT22;32330;51.936;7.184;2024-03-08T07:03:41;1.90;8.30
46608;DHT22;32330;51.936;7.184;2024-03-08T07:06:10;1.90;6.10
46608;DHT22;32330;51.936;7.184;2024-03-08T07:08:37;1.90;6.20
46608;DHT22;32330;51.936;7.184;2024-03-08T07:11:06;2.00;7.60
46608;DHT22;32330;51.936;7.184;2024-03-08T07:13:33;2.10;5.00
46608;DHT22;32330;51.936;7.184;2024-03-08T07:16:04;2.10;1.00
46608;DHT22;32330;51.936;7.184;2024-03-08T07:18:31;2.10;1.00
46608;DHT22;32330;51.936;7.184;2024-03-08T07:21:00;2.20;1.00
46608;DHT22;32330;51.936;7.184;2024-03-08T07:23:27;2.20;1.00
46608;DHT22;32330;51.936;7.184;2024-03-08T07:26:16;2.30;1.00
46608;DHT22;32330;51.936;7.184;2024-03-08T07:28:45;2.40;1.00
46608;DHT22;32330;51.936;7.184;2024-03-08T07:31:12;2.40;1.00
46608;DHT22;32330;51.936;7.184;2024-03-08T07:33:47;2.50;1.00
46608;DHT22;32330;51.936;7.184;2024-03-08T07:36:16;2.50;1.00
46608;DHT22;32330;51.936;7.184;2024-03-08T07:38:43;2.60;1.00
46608;DHT22;32330;51.936;7.184;2024-03-08T07:41:12;2.60;1.00
46608;DHT22;32330;51.936;7.184;2024-03-08T07:43:41;2.70;1.00
46608;DHT22;32330;51.936;7.184;2024-03-08T07:46:09;2.70;1.00
46608;DHT22;32330;51.936;7.184;2024-03-08T07:48:36;2.80;1.00
46608;DHT22;32330;51.936;7.184;2024-03-08T07:51:05;2.90;1.00
46608;DHT22;32330;51.936;7.184;2024-03-08T07:53:35;3.00;1.00
46608;DHT22;32330;51.936;7.184;2024-03-08T07:56:02;3.00;1.00
46608;DHT22;32330;51.936;7.184;2024-03-08T07:58:30;3.00;1.00
46608;DHT22;32330;51.936;7.184;2024-03-08T08:00:59;3.10;1.00
46608;DHT22;32330;51.936;7.184;2024-03-08T08:03:26;3.20;1.00
46608;DHT22;32330;51.936;7.184;2024-03-08T08:05:53;3.30;1.00
46608;DHT22;32330;51.936;7.184;2024-03-08T08:08:20;3.30;1.00
46608;DHT22;32330;51.936;7.184;2024-03-08T08:10:47;3.40;1.00
46608;DHT22;32330;51.936;7.184;2024-03-08T08:13:15;3.50;1.00
46608;DHT22;32330;51.936;7.184;2024-03-08T08:15:43;3.60;1.00
46608;DHT22;32330;51.936;7.184;2024-03-08T08:18:13;3.60;99.90
46608;DHT22;32330;51.936;7.184;2024-03-08T08:20:40;3.70;99.90
46608;DHT22;32330;51.936;7.184;2024-03-08T08:23:07;3.80;99.90
46608;DHT22;32330;51.936;7.184;2024-03-08T08:25:34;3.80;99.90
46608;DHT22;32330;51.936;7.184;2024-03-08T08:28:01;3.90;99.90
46608;DHT22;32330;51.936;7.184;2024-03-08T08:30:29;4.00;99.90
46608;DHT22;32330;51.936;7.184;2024-03-08T08:32:58;4.10;99.90
46608;DHT22;32330;51.936;7.184;2024-03-08T08:35:28;4.20;99.90
46608;DHT22;32330;51.936;7.184;2024-03-08T08:37:55;4.20;99.90
46608;DHT22;32330;51.936;7.184;2024-03-08T08:40:22;4.40;99.90
46608;DHT22;32330;51.936;7.184;2024-03-08T08:42:49;4.50;99.90
46608;DHT22;32330;51.936;7.184;2024-03-08T08:45:17;4.50;99.90
46608;DHT22;32330;51.936;7.184;2024-03-08T08:47:44;4.60;99.90
46608;DHT22;32330;51.936;7.184;2024-03-08T08:50:12;4.70;99.90
46608;DHT22;32330;51.936;7.184;2024-03-08T08:52:41;4.80;99.90
46608;DHT22;32330;51.936;7.184;2024-03-08T08:55:09;4.90;99.90
46608;DHT22;32330;51.936;7.184;2024-03-08T08:57:40;5.00;99.90
46608;DHT22;32330;51.936;7.184;2024-03-08T09:00:08;5.20;99.90
46608;DHT22;32330;51.936;7.184;2024-03-08T09:02:40;5.30;99.90
46608;DHT22;32330;51.936;7.184;2024-03-08T09:05:08;5.40;99.90
46608;DHT22;32330;51.936;7.184;2024-03-08T09:07:35;5.50;99.90
46608;DHT22;32330;51.936;7.184;2024-03-08T09:10:05;5.60;99.90
46608;DHT22;32330;51.936;7.184;2024-03-08T09:12:32;5.70;99.90
46608;DHT22;32330;51.936;7.184;2024-03-08T09:14:59;5.70;99.90
46608;DHT22;32330;51.936;7.184;2024-03-08T09:17:26;5.80;99.90
46608;DHT22;32330;51.936;7.184;2024-03-08T09:19:53;6.00;99.90
46608;DHT22;32330;51.936;7.184;2024-03-08T09:22:21;6.10;45.40
46608;DHT22;32330;51.936;7.184;2024-03-08T09:24:48;6.20;1.00
46608;DHT22;32330;51.936;7.184;2024-03-08T09:27:17;6.30;16.20
46608;DHT22;32330;51.936;7.184;2024-03-08T09:29:44;6.40;1.00
46608;DHT22;32330;51.936;7.184;2024-03-08T09:32:11;6.50;99.90
46608;DHT22;32330;51.936;7.184;2024-03-08T09:34:38;6.60;1.00
46608;DHT22;32330;51.936;7.184;2024-03-08T09:37:06;6.70;99.90
46608;DHT22;32330;51.936;7.184;2024-03-08T09:39:34;6.80;27.10
46608;DHT22;32330;51.936;7.184;2024-03-08T09:42:01;6.90;35.20
46608;DHT22;32330;51.936;7.184;2024-03-08T09:44:30;7.00;99.90
46608;DHT22;32330;51.936;7.184;2024-03-08T09:46:58;6.90;1.00
46608;DHT22;32330;51.936;7.184;2024-03-08T09:49:28;7.00;99.90
46608;DHT22;32330;51.936;7.184;2024-03-08T09:51:55;7.20;99.90
46608;DHT22;32330;51.936;7.184;2024-03-08T09:54:24;7.30;99.90
46608;DHT22;32330;51.936;7.184;2024-03-08T09:56:52;7.50;90.80
46608;DHT22;32330;51.936;7.184;2024-03-08T09:59:19;7.60;99.90
46608;DHT22;32330;51.936;7.184;2024-03-08T10:02:14;7.50;1.00
46608;DHT22;32330;51.936;7.184;2024-03-08T10:04:42;7.60;99.90
46608;DHT22;32330;51.936;7.184;2024-03-08T10:07:12;7.70;99.90
46608;DHT22;32330;51.936;7.184;2024-03-08T10:09:39;7.70;99.90
46608;DHT22;32330;51.936;7.184;2024-03-08T10:12:08;7.90;99.90
46608;DHT22;32330;51.936;7.184;2024-03-08T10:14:39;8.10;99.90
46608;DHT22;32330;51.936;7.184;2024-03-08T10:17:07;8.20;99.90
46608;DHT22;32330;51.936;7.184;2024-03-08T10:19:36;8.40;99.90
46608;DHT22;32330;51.936;7.184;2024-03-08T10:22:04;8.40;99.90
46608;DHT22;32330;51.936;7.184;2024-03-08T10:24:33;8.50;99.90
46608;DHT22;32330;51.936;7.184;2024-03-08T10:27:01;8.40;99.90
46608;DHT22;32330;51.936;7.184;2024-03-08T10:29:31;8.60;99.90
46608;DHT22;32330;51.936;7.184;2024-03-08T10:31:58;8.70;99.90
46608;DHT22;32330;51.936;7.184;2024-03-08T10:34:25;8.90;99.90
46608;DHT22;32330;51.936;7.184;2024-03-08T10:36:57;9.00;99.90
46608;DHT22;32330;51.936;7.184;2024-03-08T10:39:25;9.00;1.00
46608;DHT22;32330;51.936;7.184;2024-03-08T10:41:57;9.10;1.00
46608;DHT22;32330;51.936;7.184;2024-03-08T10:44:49;9.10;1.00
46608;DHT22;32330;51.936;7.184;2024-03-08T10:47:26;9.20;99.90
46608;DHT22;32330;51.936;7.184;2024-03-08T10:50:09;9.20;99.90
46608;DHT22;32330;51.936;7.184;2024-03-08T10:52:40;9.30;1.00
46608;DHT22;32330;51.936;7.184;2024-03-08T10:55:10;9.40;40.40
46608;DHT22;32330;51.936;7.184;2024-03-08T10:57:40;9.40;99.90
46608;DHT22;32330;51.936;7.184;2024-03-08T11:00:08;9.30;99.90
46608;DHT22;32330;51.936;7.184;2024-03-08T11:02:37;9.50;1.00
46608;DHT22;32330;51.936;7.184;2024-03-08T11:05:04;9.70;99.90
46608;DHT22;32330;51.936;7.184;2024-03-08T11:07:33;9.80;99.90
46608;DHT22;32330;51.936;7.184;2024-03-08T11:10:04;9.80;99.90
46608;DHT22;32330;51.936;7.184;2024-03-08T11:12:37;9.70;13.00
46608;DHT22;32330;51.936;7.184;2024-03-08T11:15:10;9.90;99.90
46608;DHT22;32330;51.936;7.184;2024-03-08T11:17:46;10.10;80.20
46608;DHT22;32330;51.936;7.184;2024-03-08T11:20:15;10.30;1.00
46608;DHT22;32330;51.936;7.184;2024-03-08T11:22:48;10.30;99.90
46608;DHT22;32330;51.936;7.184;2024-03-08T11:25:35;10.30;1.00
46608;DHT22;32330;51.936;7.184;2024-03-08T11:28:10;10.40;1.00
46608;DHT22;32330;51.936;7.184;2024-03-08T11:30:46;10.50;99.90
46608;DHT22;32330;51.936;7.184;2024-03-08T11:33:15;10.60;99.90
46608;DHT22;32330;51.936;7.184;2024-03-08T11:35:42;10.50;99.90
46608;DHT22;32330;51.936;7.184;2024-03-08T11:38:12;10.70;99.90
46608;DHT22;32330;51.936;7.184;2024-03-08T11:40:41;10.80;99.90
46608;DHT22;32330;51.936;7.184;2024-03-08T11:43:09;10.60;76.90
46608;DHT22;32330;51.936;7.184;2024-03-08T11:45:36;10.70;99.90
46608;DHT22;32330;51.936;7.184;2024-03-08T11:48:04;11.00;98.20
46608;DHT22;32330;51.936;7.184;2024-03-08T11:50:31;10.80;58.40
46608;DHT22;32330;51.936;7.184;2024-03-08T11:53:03;10.80;73.80
46608;DHT22;32330;51.936;7.184;2024-03-08T11:55:31;10.90;23.80
46608;DHT22;32330;51.936;7.184;2024-03-08T11:58:05;11.00;43.30
46608;DHT22;32330;51.936;7.184;2024-03-08T12:00:36;11.00;9.30
46608;DHT22;32330;51.936;7.184;2024-03-08T12:03:06;11.10;99.90
46608;DHT22;32330;51.936;7.184;2024-03-08T12:05:33;11.10;58.60
46608;DHT22;32330;51.936;7.184;2024-03-08T12:08:01;11.10;49.10
46608;DHT22;32330;51.936;7.184;2024-03-08T12:10:28;11.10;29.10
46608;DHT22;32330;51.936;7.184;2024-03-08T12:12:57;11.00;1.00
46608;DHT22;32330;51.936;7.184;2024-03-08T12:15:28;11.20;1.00
46608;DHT22;32330;51.936;7.184;2024-03-08T12:17:58;11.20;1.00
46608;DHT22;32330;51.936;7.184;2024-03-08T12:20:28;11.30;1.00
46608;DHT22;32330;51.936;7.184;2024-03-08T12:22:57;11.20;1.00
46608;DHT22;32330;51.936;7.184;2024-03-08T12:25:27;11.50;7.20
46608;DHT22;32330;51.936;7.184;2024-03-08T12:28:06;11.50;1.00
46608;DHT22;32330;51.936;7.184;2024-03-08T12:30:45;11.30;1.00
46608;DHT22;32330;51.936;7.184;2024-03-08T12:33:12;11.60;1.00
46608;DHT22;32330;51.936;7.184;2024-03-08T12:35:40;11.50;1.00
46608;DHT22;32330;51.936;7.184;2024-03-08T12:38:08;11.60;1.00
46608;DHT22;32330;51.936;7.184;2024-03-08T12:40:35;11.30;1.00
46608;DHT22;32330;51.936;7.184;2024-03-08T12:43:06;11.60;1.00
46608;DHT22;32330;51.936;7.184;2024-03-08T12:46:44;11.70;1.00
46608;DHT22;32330;51.936;7.184;2024-03-08T12:49:11;11.80;99.90
46608;DHT22;32330;51.936;7.184;2024-03-08T12:51:39;11.70;99.90
46608;DHT22;32330;51.936;7.184;2024-03-08T12:54:07;11.70;99.90
46608;DHT22;32330;51.936;7.184;2024-03-08T12:56:35;11.80;1.00
46608;DHT22;32330;51.936;7.184;2024-03-08T12:59:04;11.90;99.90
46608;DHT22;32330;51.936;7.184;2024-03-08T13:01:32;11.90;99.90
46608;DHT22;32330;51.936;7.184;2024-03-08T13:04:00;11.80;99.90
46608;DHT22;32330;51.936;7.184;2024-03-08T13:06:28;11.90;99.90
46608;DHT22;32330;51.936;7.184;2024-03-08T13:08:57;12.10;99.90
46608;DHT22;32330;51.936;7.184;2024-03-08T13:11:24;12.00;99.90
46608;DHT22;32330;51.936;7.184;2024-03-08T13:13:53;11.90;99.90
46608;DHT22;32330;51.936;7.184;2024-03-08T13:16:20;12.00;99.90
46608;DHT22;32330;51.936;7.184;2024-03-08T13:18:49;11.90;99.90
46608;DHT22;32330;51.936;7.184;2024-03-08T13:21:21;12.00;99.90
46608;DHT22;32330;51.936;7.184;2024-03-08T13:23:49;12.10;99.90
46608;DHT22;32330;51.936;7.184;2024-03-08T13:26:19;12.20;99.90
46608;DHT22;32330;51.936;7.184;2024-03-08T13:28:46;12.10;99.90
46608;DHT22;32330;51.936;7.184;2024-03-08T13:31:16;12.20;99.90
46608;DHT22;32330;51.936;7.184;2024-03-08T13:33:45;12.00;99.90
46608;DHT22;32330;51.936;7.184;2024-03-08T13:36:13;11.90;99.90
46608;DHT22;32330;51.936;7.184;2024-03-08T13:38:44;12.10;99.90
46608;DHT22;32330;51.936;7.184;2024-03-08T13:41:12;12.20;99.90
46608;DHT22;32330;51.936;7.184;2024-03-08T13:43:40;12.10;99.90
46608;DHT22;32330;51.936;7.184;2024-03-08T13:46:07;11.90;99.90
46608;DHT22;32330;51.936;7.184;2024-03-08T13:48:36;11.90;99.90
46608;DHT22;32330;51.936;7.184;2024-03-08T13:51:04;12.00;99.90
46608;DHT22;32330;51.936;7.184;2024-03-08T13:53:32;12.10;99.90
46608;DHT22;32330;51.936;7.184;2024-03-08T13:56:02;11.90;99.90
46608;DHT22;32330;51.936;7.184;2024-03-08T13:58:29;11.90;99.90
46608;DHT22;32330;51.936;7.184;2024-03-08T14:00:56;12.00;99.90
46608;DHT22;32330;51.936;7.184;2024-03-08T14:03:23;11.90;99.90
46608;DHT22;32330;51.936;7.184;2024-03-08T14:05:50;11.90;99.90
46608;DHT22;32330;51.936;7.184;2024-03-08T14:08:17;11.90;99.90
46608;DHT22;32330;51.936;7.184;2024-03-08T14:10:45;12.10;99.90
46608;DHT22;32330;51.936;7.184;2024-03-08T14:13:14;12.00;99.90
46608;DHT22;32330;51.936;7.184;2024-03-08T14:15:41;12.20;99.90
46608;DHT22;32330;51.936;7.184;2024-03-08T14:18:11;11.90;99.90
46608;DHT22;32330;51.936;7.184;2024-03-08T14:20:39;11.90;99.90
46608;DHT22;32330;51.936;7.184;2024-03-08T14:23:07;11.90;99.90
46608;DHT22;32330;51.936;7.184;2024-03-08T14:25:34;12.00;99.90
46608;DHT22;32330;51.936;7.184;2024-03-08T14:28:02;12.00;99.90
46608;DHT22;32330;51.936;7.184;2024-03-08T14:30:34;12.10;99.90
46608;DHT22;32330;51.936;7.184;2024-03-08T14:33:07;12.30;99.90
46608;DHT22;32330;51.936;7.184;2024-03-08T14:35:35;12.30;99.90
46608;DHT22;32330;51.936;7.184;2024-03-08T14:38:03;12.20;99.90
46608;DHT22;32330;51.936;7.184;2024-03-08T14:40:30;12.20;99.90
46608;DHT22;32330;51.936;7.184;2024-03-08T14:42:57;12.20;99.90
46608;DHT22;32330;51.936;7.184;2024-03-08T14:45:24;12.10;99.90
46608;DHT22;32330;51.936;7.184;2024-03-08T14:47:54;12.20;99.90
46608;DHT22;32330;51.936;7.184;2024-03-08T14:50:22;12.10;99.90
46608;DHT22;32330;51.936;7.184;2024-03-08T14:52:50;12.10;99.90
46608;DHT22;32330;51.936;7.184;2024-03-08T14:55:18;12.20;99.90
46608;DHT22;32330;51.936;7.184;2024-03-08T14:57:47;12.10;99.90
46608;DHT22;32330;51.936;7.184;2024-03-08T15:00:17;12.10;99.90
46608;DHT22;32330;51.936;7.184;2024-03-08T15:02:54;12.10;99.90
46608;DHT22;32330;51.936;7.184;2024-03-08T15:05:21;12.00;99.90
46608;DHT22;32330;51.936;7.184;2024-03-08T15:07:52;12.00;99.90
46608;DHT22;32330;51.936;7.184;2024-03-08T15:10:19;11.90;99.90
46608;DHT22;32330;51.936;7.184;2024-03-08T15:12:50;11.80;99.90
46608;DHT22;32330;51.936;7.184;2024-03-08T15:15:21;11.80;99.90
46608;DHT22;32330;51.936;7.184;2024-03-08T15:17:50;11.80;99.90
46608;DHT22;32330;51.936;7.184;2024-03-08T15:20:21;11.70;99.90
46608;DHT22;32330;51.936;7.184;2024-03-08T15:22:51;11.70;99.90
46608;DHT22;32330;51.936;7.184;2024-03-08T15:25:20;11.60;99.90
46608;DHT22;32330;51.936;7.184;2024-03-08T15:27:51;11.60;99.90
46608;DHT22;32330;51.936;7.184;2024-03-08T15:30:19;11.50;99.90
46608;DHT22;32330;51.936;7.184;2024-03-08T15:32:48;11.40;99.90
46608;DHT22;32330;51.936;7.184;2024-03-08T15:35:16;11.30;99.90
46608;DHT22;32330;51.936;7.184;2024-03-08T15:37:45;11.50;99.90
46608;DHT22;32330;51.936;7.184;2024-03-08T15:40:13;11.30;99.90
46608;DHT22;32330;51.936;7.184;2024-03-08T15:42:48;11.20;99.90
46608;DHT22;32330;51.936;7.184;2024-03-08T15:45:16;11.00;99.90
46608;DHT22;32330;51.936;7.184;2024-03-08T15:47:44;11.10;1.00
46608;DHT22;32330;51.936;7.184;2024-03-08T15:50:11;11.00;1.00
46608;DHT22;32330;51.936;7.184;2024-03-08T15:52:42;11.00;1.00
46608;DHT22;32330;51.936;7.184;2024-03-08T15:55:16;10.90;1.00
46608;DHT22;32330;51.936;7.184;2024-03-08T15:57:46;11.00;1.00
46608;DHT22;32330;51.936;7.184;2024-03-08T16:00:15;10.90;1.00